Time;durP1;ratioP1;P1;durP2;ratioP2;P2;SDS_P1;SDS_P2;PMS_P1;PMS_P2;Temp;Humidity;BMP_temperature;BMP_pressure;BME280_temperature;BME280_humidity;BME280_pressure;Samples;Min_cycle;Max_cycle;Signal;HPM_P1;HPM_P2
2022/10/21 00:01:26;;;;;;;;;;;21.40;99.90;;;;;;5041852;28;20318;-72
2022/10/21 00:03:53;;;;;;;;;;;21.40;99.90;;;;;;5043203;28;19928;-79
2022/10/21 00:06:20;;;;;;;;;;;21.50;99.90;;;;;;5040779;28;19917;-78
2022/10/21 00:08:46;;;;;;;;;;;21.50;99.90;;;;;;5041390;28;20006;-75
2022/10/21 00:11:13;;;;;;;;;;;21.60;99.90;;;;;;5040311;28;19917;-75
2022/10/21 00:13:40;;;;;;;;;;;21.60;99.90;;;;;;5039742;28;19917;-77
2022/10/21 00:16:06;;;;;;;;;;;21.80;99.90;;;;;;5043938;28;20821;-74
2022/10/21 00:18:34;;;;;;;;;;;21.70;99.90;;;;;;5039570;28;20023;-74
2022/10/21 00:21:04;;;;;;;;;;;21.70;99.90;;;;;;5043007;28;19921;-73
2022/10/21 00:23:30;;;;;;;;;;;21.60;99.90;;;;;;5041131;28;19924;-76
2022/10/21 00:25:58;;;;;;;;;;;21.60;99.90;;;;;;5039257;28;19928;-76
2022/10/21 00:28:24;;;;;;;;;;;21.60;99.90;;;;;;5044068;28;20273;-77
2022/10/21 00:30:51;;;;;;;;;;;21.60;99.90;;;;;;5049078;28;20002;-74
2022/10/21 00:33:18;;;;;;;;;;;21.50;99.90;;;;;;5047480;28;19916;-72
2022/10/21 00:35:54;;;;;;;;;;;21.50;99.90;;;;;;5043523;28;19916;-75
2022/10/21 00:38:21;;;;;;;;;;;21.50;99.90;;;;;;5046860;28;19923;-75
2022/10/21 00:40:48;;;;;;;;;;;21.50;99.90;;;;;;5043558;28;19924;-75
2022/10/21 00:43:14;;;;;;;;;;;21.70;99.90;;;;;;5040647;28;19921;-76
2022/10/21 00:45:41;;;;;;;;;;;21.80;99.90;;;;;;5039953;28;20016;-76
2022/10/21 00:48:08;;;;;;;;;;;22.00;99.90;;;;;;5041080;28;20417;-74
2022/10/21 00:50:40;;;;;;;;;;;22.20;99.90;;;;;;5044691;28;19994;-71
2022/10/21 00:53:09;;;;;;;;;;;22.30;99.90;;;;;;5047976;28;19917;-72
2022/10/21 00:55:38;;;;;;;;;;;22.30;99.90;;;;;;5049682;28;19925;-74
2022/10/21 00:58:05;;;;;;;;;;;22.30;99.90;;;;;;5045933;28;19924;-72
2022/10/21 01:00:32;;;;;;;;;;;22.20;99.90;;;;;;5046200;28;19971;-75
2022/10/21 01:02:59;;;;;;;;;;;22.20;99.90;;;;;;5038313;28;19925;-72
2022/10/21 01:05:26;;;;;;;;;;;22.40;99.90;;;;;;5047313;28;20367;-75
2022/10/21 01:07:53;;;;;;;;;;;22.70;99.90;;;;;;5041055;28;19917;-73
2022/10/21 01:10:20;;;;;;;;;;;23.00;99.90;;;;;;5037257;28;19920;-76
2022/10/21 01:12:52;;;;;;;;;;;23.30;99.90;;;;;;5047412;28;19920;-74
2022/10/21 01:15:22;;;;;;;;;;;23.50;99.90;;;;;;5046359;28;20014;-74
2022/10/21 01:18:08;;;;;;;;;;;23.50;99.90;;;;;;5040459;28;19927;-69
2022/10/21 01:20:38;;;;;;;;;;;23.60;99.90;;;;;;5039861;28;19944;-72
2022/10/21 01:23:20;;;;;;;;;;;23.80;99.90;;;;;;5042378;28;19928;-74
2022/10/21 01:25:46;;;;;;;;;;;23.70;99.90;;;;;;5037729;28;19925;-72
2022/10/21 01:28:13;;;;;;;;;;;23.80;99.90;;;;;;5048486;28;19916;-71
2022/10/21 01:30:45;;;;;;;;;;;23.70;99.90;;;;;;5046985;28;19920;-73
2022/10/21 01:33:27;;;;;;;;;;;23.70;99.90;;;;;;5045797;28;20372;-75
2022/10/21 01:36:05;;;;;;;;;;;23.70;99.90;;;;;;5045147;28;20323;-73
2022/10/21 01:38:42;;;;;;;;;;;23.80;99.90;;;;;;5041618;28;19948;-73
2022/10/21 01:41:15;;;;;;;;;;;23.70;99.90;;;;;;5052398;28;19919;-73
2022/10/21 01:43:41;;;;;;;;;;;23.60;99.90;;;;;;5048311;28;19925;-71
2022/10/21 01:46:28;;;;;;;;;;;23.80;99.90;;;;;;5053411;28;20270;-72
2022/10/21 01:48:57;;;;;;;;;;;24.00;99.90;;;;;;5051421;28;19992;-75
2022/10/21 01:51:26;;;;;;;;;;;24.00;99.90;;;;;;5049599;28;19990;-74
2022/10/21 01:54:19;;;;;;;;;;;24.20;99.90;;;;;;5052355;28;20008;-78
2022/10/21 01:56:46;;;;;;;;;;;24.20;99.90;;;;;;5047309;28;19978;-74
2022/10/21 01:59:13;;;;;;;;;;;24.30;99.90;;;;;;5047097;28;19913;-76
2022/10/21 02:01:40;;;;;;;;;;;24.40;99.90;;;;;;5051640;28;19996;-77
2022/10/21 02:04:08;;;;;;;;;;;24.30;99.90;;;;;;5052248;28;20322;-76
2022/10/21 02:06:35;;;;;;;;;;;24.40;99.90;;;;;;5020277;28;20313;-75
2022/10/21 02:09:01;;;;;;;;;;;24.40;99.90;;;;;;5052955;28;19939;-77
2022/10/21 02:11:28;;;;;;;;;;;24.40;99.90;;;;;;5052191;28;20314;-76
2022/10/21 02:13:55;;;;;;;;;;;24.20;99.90;;;;;;5047002;28;19913;-75
2022/10/21 02:16:29;;;;;;;;;;;24.20;99.90;;;;;;5048040;28;22395;-76
2022/10/21 02:18:57;;;;;;;;;;;24.10;99.90;;;;;;5053106;28;19913;-75
2022/10/21 02:21:26;;;;;;;;;;;24.20;99.90;;;;;;5044843;28;19913;-76
2022/10/21 02:23:54;;;;;;;;;;;24.20;99.90;;;;;;5052549;28;20016;-71
2022/10/21 02:26:25;;;;;;;;;;;24.30;99.90;;;;;;5052978;28;20012;-73
2022/10/21 02:28:52;;;;;;;;;;;24.50;99.90;;;;;;5054439;28;20414;-71
2022/10/21 02:31:34;;;;;;;;;;;24.60;99.90;;;;;;5054239;28;20244;-71
2022/10/21 02:34:04;;;;;;;;;;;24.60;99.90;;;;;;5016561;28;20360;-71
2022/10/21 02:36:34;;;;;;;;;;;24.60;99.90;;;;;;5035118;28;19956;-71
2022/10/21 02:39:03;;;;;;;;;;;24.60;99.90;;;;;;5049441;28;20225;-72
2022/10/21 02:41:31;;;;;;;;;;;24.40;99.90;;;;;;5047843;28;19999;-73
2022/10/21 02:44:02;;;;;;;;;;;24.40;99.90;;;;;;5052421;28;19924;-72
2022/10/21 02:46:39;;;;;;;;;;;24.40;99.90;;;;;;5053209;28;19964;-74
2022/10/21 02:49:05;;;;;;;;;;;24.30;99.90;;;;;;5033859;28;20331;-78
2022/10/21 02:51:32;;;;;;;;;;;24.20;99.90;;;;;;5044331;28;19945;-71
2022/10/21 02:53:59;;;;;;;;;;;24.20;99.90;;;;;;5049754;28;19932;-71
2022/10/21 02:56:26;;;;;;;;;;;24.20;99.90;;;;;;5051669;28;22397;-70
2022/10/21 02:58:53;;;;;;;;;;;24.30;99.90;;;;;;5050962;28;19938;-75
2022/10/21 03:01:19;;;;;;;;;;;24.30;99.90;;;;;;5053843;28;19908;-75
2022/10/21 03:03:46;;;;;;;;;;;24.40;99.90;;;;;;5041592;28;19920;-75
2022/10/21 03:06:13;;;;;;;;;;;24.50;99.90;;;;;;5053861;28;19912;-71
2022/10/21 03:08:39;;;;;;;;;;;24.50;99.90;;;;;;5052555;28;19916;-73
2022/10/21 03:11:06;;;;;;;;;;;24.60;99.90;;;;;;5053695;28;19919;-72
2022/10/21 03:13:33;;;;;;;;;;;24.50;99.90;;;;;;5042118;28;20019;-74
2022/10/21 03:15:59;;;;;;;;;;;24.40;99.90;;;;;;5053204;28;19943;-74
2022/10/21 03:18:26;;;;;;;;;;;24.60;99.90;;;;;;5036754;28;19909;-73
2022/10/21 03:20:53;;;;;;;;;;;24.80;99.90;;;;;;5033492;28;19956;-77
2022/10/21 03:23:20;;;;;;;;;;;25.00;99.90;;;;;;5037379;28;19924;-72
2022/10/21 03:25:47;;;;;;;;;;;25.20;99.90;;;;;;5053079;28;19971;-72
2022/10/21 03:28:13;;;;;;;;;;;25.70;99.90;;;;;;5047422;28;19917;-73
2022/10/21 03:30:40;;;;;;;;;;;26.30;99.90;;;;;;5052109;28;19919;-74
2022/10/21 03:33:07;;;;;;;;;;;26.60;99.90;;;;;;5047814;28;19970;-72
2022/10/21 03:35:33;;;;;;;;;;;26.50;99.90;;;;;;5053114;28;19913;-75
2022/10/21 03:38:00;;;;;;;;;;;26.20;99.90;;;;;;5041529;28;19955;-77
2022/10/21 03:40:29;;;;;;;;;;;25.90;99.90;;;;;;5052897;28;20290;-73
2022/10/21 03:42:56;;;;;;;;;;;25.70;99.90;;;;;;5040411;28;19920;-73
2022/10/21 03:45:23;;;;;;;;;;;25.70;99.90;;;;;;5051848;28;19920;-76
2022/10/21 03:47:50;;;;;;;;;;;25.70;99.90;;;;;;5042212;28;20283;-74
2022/10/21 03:50:18;;;;;;;;;;;25.50;99.90;;;;;;5052994;28;19920;-75
2022/10/21 03:52:44;;;;;;;;;;;25.40;99.90;;;;;;5041676;28;19991;-76
2022/10/21 03:55:11;;;;;;;;;;;25.00;99.90;;;;;;5049927;28;19919;-75
2022/10/21 03:57:38;;;;;;;;;;;24.90;99.90;;;;;;5042509;28;20340;-71
2022/10/21 04:00:05;;;;;;;;;;;24.70;99.90;;;;;;5047195;28;19928;-76
2022/10/21 04:02:31;;;;;;;;;;;24.60;99.90;;;;;;5042973;28;19987;-77
2022/10/21 04:04:58;;;;;;;;;;;24.50;99.90;;;;;;5047523;28;19916;-76
2022/10/21 04:07:25;;;;;;;;;;;24.50;99.90;;;;;;5050579;28;19913;-70
2022/10/21 04:09:51;;;;;;;;;;;24.40;99.90;;;;;;5051376;28;19924;-76
2022/10/21 04:12:18;;;;;;;;;;;24.40;99.90;;;;;;5045369;28;19917;-71
2022/10/21 04:14:45;;;;;;;;;;;24.20;99.90;;;;;;5047972;28;19999;-75
2022/10/21 04:17:11;;;;;;;;;;;24.20;99.90;;;;;;5045261;28;19940;-78
2022/10/21 04:19:38;;;;;;;;;;;24.20;99.90;;;;;;5033823;28;19917;-78
2022/10/21 04:22:05;;;;;;;;;;;24.20;99.90;;;;;;5050249;28;20021;-76
2022/10/21 04:24:31;;;;;;;;;;;24.20;99.90;;;;;;5051970;28;19920;-78
2022/10/21 04:26:58;;;;;;;;;;;24.20;99.90;;;;;;5047833;28;19945;-74
2022/10/21 04:29:25;;;;;;;;;;;24.10;99.90;;;;;;5040913;28;19916;-77
2022/10/21 04:31:51;;;;;;;;;;;24.10;99.90;;;;;;5050308;28;20275;-77
2022/10/21 04:34:18;;;;;;;;;;;24.00;99.90;;;;;;5050664;28;20393;-76
2022/10/21 04:36:44;;;;;;;;;;;23.90;99.90;;;;;;5049637;28;20012;-78
2022/10/21 04:39:11;;;;;;;;;;;23.00;99.90;;;;;;5036328;28;19916;-78
2022/10/21 04:41:38;;;;;;;;;;;22.30;99.90;;;;;;5050741;28;19908;-74
2022/10/21 04:44:05;;;;;;;;;;;21.90;99.90;;;;;;5051988;28;19921;-78
2022/10/21 04:46:32;;;;;;;;;;;21.80;99.90;;;;;;5050684;28;19966;-77
2022/10/21 04:48:58;;;;;;;;;;;21.80;99.90;;;;;;5032442;28;20398;-76
2022/10/21 04:51:25;;;;;;;;;;;22.10;99.90;;;;;;5032186;28;19936;-76
2022/10/21 04:53:52;;;;;;;;;;;22.30;99.90;;;;;;5032700;28;19957;-74
2022/10/21 04:56:18;;;;;;;;;;;22.40;99.90;;;;;;5049707;28;19913;-76
2022/10/21 04:58:45;;;;;;;;;;;22.50;99.90;;;;;;5033144;28;19913;-77
2022/10/21 05:01:11;;;;;;;;;;;22.70;99.90;;;;;;5032178;28;19916;-74
2022/10/21 05:03:38;;;;;;;;;;;22.80;99.90;;;;;;5045158;28;19920;-76
2022/10/21 05:06:05;;;;;;;;;;;23.20;99.90;;;;;;5050586;28;20250;-77
2022/10/21 05:08:31;;;;;;;;;;;23.40;99.90;;;;;;5044443;28;20371;-77
2022/10/21 05:11:01;;;;;;;;;;;23.60;99.90;;;;;;5032086;28;20003;-77
2022/10/21 05:13:29;;;;;;;;;;;23.90;99.90;;;;;;5042957;28;19913;-77
2022/10/21 05:15:59;;;;;;;;;;;24.10;99.90;;;;;;5055650;28;19909;-78
2022/10/21 05:18:25;;;;;;;;;;;24.20;99.90;;;;;;5054815;28;19912;-75
2022/10/21 05:20:53;;;;;;;;;;;24.30;99.90;;;;;;5054718;28;19916;-76
2022/10/21 05:23:19;;;;;;;;;;;24.40;99.90;;;;;;5054250;28;19927;-76
2022/10/21 05:25:47;;;;;;;;;;;24.50;99.90;;;;;;5055066;28;20015;-74
2022/10/21 05:28:14;;;;;;;;;;;24.50;99.90;;;;;;5040585;28;20286;-76
2022/10/21 05:30:40;;;;;;;;;;;24.60;99.90;;;;;;5043835;28;19916;-77
2022/10/21 05:33:07;;;;;;;;;;;24.60;99.90;;;;;;5048369;28;20008;-76
2022/10/21 05:35:34;;;;;;;;;;;24.80;99.90;;;;;;5039978;28;19947;-78
2022/10/21 05:38:00;;;;;;;;;;;24.80;99.90;;;;;;5040399;28;20427;-75
2022/10/21 05:40:27;;;;;;;;;;;24.90;99.90;;;;;;5035621;28;20363;-78
2022/10/21 05:42:54;;;;;;;;;;;24.80;99.90;;;;;;5041409;28;19971;-79
2022/10/21 05:45:20;;;;;;;;;;;24.70;99.90;;;;;;5039428;28;20387;-78
2022/10/21 05:47:47;;;;;;;;;;;24.70;99.90;;;;;;5052934;28;19912;-78
2022/10/21 05:50:14;;;;;;;;;;;24.70;99.90;;;;;;5044768;28;19956;-76
2022/10/21 05:52:41;;;;;;;;;;;24.70;99.90;;;;;;5053250;28;20015;-76
2022/10/21 05:55:08;;;;;;;;;;;24.70;99.90;;;;;;5055004;28;19913;-77
2022/10/21 05:57:35;;;;;;;;;;;24.70;99.90;;;;;;5044688;28;19913;-76
2022/10/21 06:00:03;;;;;;;;;;;24.70;99.90;;;;;;5050762;28;19913;-77
2022/10/21 06:02:30;;;;;;;;;;;24.70;99.90;;;;;;5045845;28;19928;-77
2022/10/21 06:04:57;;;;;;;;;;;24.60;99.90;;;;;;5050482;28;20003;-73
2022/10/21 06:07:23;;;;;;;;;;;24.60;99.90;;;;;;5046479;28;20323;-77
2022/10/21 06:09:50;;;;;;;;;;;24.50;99.90;;;;;;5046094;28;20282;-77
2022/10/21 06:12:16;;;;;;;;;;;24.30;99.90;;;;;;5046611;28;19913;-75
2022/10/21 06:14:43;;;;;;;;;;;24.30;99.90;;;;;;5044314;28;19923;-75
2022/10/21 06:17:10;;;;;;;;;;;24.20;99.90;;;;;;5052803;28;19970;-76
2022/10/21 06:19:36;;;;;;;;;;;24.20;99.90;;;;;;5054270;28;19913;-73
2022/10/21 06:22:03;;;;;;;;;;;24.10;99.90;;;;;;5048991;28;19967;-75
2022/10/21 06:24:30;;;;;;;;;;;24.10;99.90;;;;;;5048553;28;20241;-75
2022/10/21 06:26:56;;;;;;;;;;;24.00;99.90;;;;;;5049901;28;20350;-70
2022/10/21 06:29:24;;;;;;;;;;;23.90;99.90;;;;;;5034387;28;19913;-71
2022/10/21 06:31:50;;;;;;;;;;;23.90;99.90;;;;;;5037333;28;20016;-74
2022/10/21 06:34:17;;;;;;;;;;;23.80;99.90;;;;;;5034210;28;19963;-75
2022/10/21 06:36:44;;;;;;;;;;;23.80;99.90;;;;;;5036450;28;20337;-74
2022/10/21 06:39:10;;;;;;;;;;;23.80;99.90;;;;;;5051754;28;19971;-73
2022/10/21 06:41:37;;;;;;;;;;;23.70;99.90;;;;;;5052271;28;20369;-76
2022/10/21 06:44:04;;;;;;;;;;;23.70;99.90;;;;;;5047007;28;19970;-77
2022/10/21 06:46:31;;;;;;;;;;;23.60;99.90;;;;;;5052659;28;19916;-76
2022/10/21 06:48:57;;;;;;;;;;;23.60;99.90;;;;;;5060084;28;19920;-77
2022/10/21 06:51:24;;;;;;;;;;;23.50;99.90;;;;;;5033739;28;19944;-72
2022/10/21 06:53:52;;;;;;;;;;;23.50;99.90;;;;;;5036885;28;20256;-73
2022/10/21 06:56:19;;;;;;;;;;;23.40;99.90;;;;;;5046758;28;19908;-76
2022/10/21 06:58:47;;;;;;;;;;;23.30;99.90;;;;;;5052576;28;19931;-74
2022/10/21 07:01:24;;;;;;;;;;;23.30;99.90;;;;;;5053726;28;19909;-79
2022/10/21 07:03:52;;;;;;;;;;;23.30;99.90;;;;;;5053095;28;19920;-75
2022/10/21 07:06:19;;;;;;;;;;;23.30;99.90;;;;;;5042031;28;19997;-78
2022/10/21 07:08:45;;;;;;;;;;;23.20;99.90;;;;;;5049425;28;20034;-76
2022/10/21 07:11:13;;;;;;;;;;;23.20;99.90;;;;;;5034422;28;19913;-76
2022/10/21 07:13:39;;;;;;;;;;;23.20;99.90;;;;;;5049619;28;19912;-78
2022/10/21 07:16:07;;;;;;;;;;;23.20;99.90;;;;;;5046573;28;19919;-76
2022/10/21 07:18:34;;;;;;;;;;;23.00;99.90;;;;;;5034240;28;20052;-75
2022/10/21 07:21:08;;;;;;;;;;;23.00;99.90;;;;;;5033323;28;19917;-78
2022/10/21 07:23:35;;;;;;;;;;;22.90;99.90;;;;;;5034177;28;19944;-77
2022/10/21 07:26:05;;;;;;;;;;;22.90;99.90;;;;;;5033230;28;20016;-77
2022/10/21 07:28:32;;;;;;;;;;;22.80;99.90;;;;;;5042025;28;19920;-76
2022/10/21 07:30:59;;;;;;;;;;;22.80;99.90;;;;;;5051962;28;20015;-77
2022/10/21 07:33:26;;;;;;;;;;;22.70;99.90;;;;;;5036631;28;19967;-77
2022/10/21 07:36:02;;;;;;;;;;;22.70;99.90;;;;;;5032090;28;20107;-78
2022/10/21 07:38:28;;;;;;;;;;;22.60;99.90;;;;;;5038012;28;19913;-76
2022/10/21 07:40:56;;;;;;;;;;;22.60;99.90;;;;;;5033212;28;19932;-74
2022/10/21 07:43:23;;;;;;;;;;;22.50;99.90;;;;;;5037997;28;19946;-77
2022/10/21 07:45:50;;;;;;;;;;;22.40;99.90;;;;;;5051422;28;19916;-76
2022/10/21 07:48:17;;;;;;;;;;;22.40;99.90;;;;;;5037647;28;20358;-73
2022/10/21 07:50:44;;;;;;;;;;;22.30;99.90;;;;;;5032891;28;19917;-77
2022/10/21 07:53:11;;;;;;;;;;;22.20;99.90;;;;;;5033692;28;19956;-77
2022/10/21 07:55:38;;;;;;;;;;;22.10;99.90;;;;;;5043650;28;20279;-76
2022/10/21 07:58:04;;;;;;;;;;;22.10;99.90;;;;;;5049818;28;19913;-73
2022/10/21 08:00:31;;;;;;;;;;;22.00;99.90;;;;;;5045210;28;19917;-78
2022/10/21 08:02:58;;;;;;;;;;;22.00;99.90;;;;;;5044924;28;20357;-72
2022/10/21 08:05:24;;;;;;;;;;;21.90;99.90;;;;;;5052753;28;19909;-71
2022/10/21 08:07:51;;;;;;;;;;;21.90;99.90;;;;;;5040544;28;19924;-75
2022/10/21 08:10:18;;;;;;;;;;;21.80;99.90;;;;;;5034421;28;20363;-71
2022/10/21 08:12:45;;;;;;;;;;;21.80;99.90;;;;;;5041707;28;19920;-70
2022/10/21 08:15:11;;;;;;;;;;;21.70;99.90;;;;;;5046755;28;19939;-76
2022/10/21 08:17:38;;;;;;;;;;;21.60;99.90;;;;;;5050520;28;20256;-73
2022/10/21 08:20:05;;;;;;;;;;;21.50;99.90;;;;;;5050901;28;19917;-70
2022/10/21 08:22:31;;;;;;;;;;;21.50;99.90;;;;;;5036535;28;19917;-76
2022/10/21 08:24:58;;;;;;;;;;;21.40;99.90;;;;;;5050282;28;19921;-72
2022/10/21 08:27:25;;;;;;;;;;;21.40;99.90;;;;;;5045710;28;19917;-73
2022/10/21 08:29:51;;;;;;;;;;;21.30;99.90;;;;;;5052002;28;19915;-72
2022/10/21 08:32:18;;;;;;;;;;;21.30;99.90;;;;;;5051282;28;20264;-76
2022/10/21 08:34:45;;;;;;;;;;;21.20;99.90;;;;;;5032948;28;19913;-78
2022/10/21 08:37:11;;;;;;;;;;;21.20;99.90;;;;;;5037582;28;20417;-74
2022/10/21 08:39:38;;;;;;;;;;;21.20;99.90;;;;;;5037451;28;20382;-75
2022/10/21 08:42:12;;;;;;;;;;;21.10;99.90;;;;;;5043498;28;20412;-73
2022/10/21 08:44:52;;;;;;;;;;;21.10;99.90;;;;;;5041908;28;19982;-75
2022/10/21 08:47:45;;;;;;;;;;;21.00;99.90;;;;;;5048617;28;19963;-77
2022/10/21 08:50:12;;;;;;;;;;;21.00;99.90;;;;;;5038994;28;19971;-76
2022/10/21 08:52:44;;;;;;;;;;;20.90;99.90;;;;;;5039904;28;19971;-76
2022/10/21 08:55:22;;;;;;;;;;;20.90;99.90;;;;;;5058132;28;19913;-78
2022/10/21 08:57:50;;;;;;;;;;;20.90;99.90;;;;;;5046774;28;19940;-78
2022/10/21 09:00:19;;;;;;;;;;;20.90;99.90;;;;;;5038610;28;19909;-77
2022/10/21 09:02:54;;;;;;;;;;;20.90;99.90;;;;;;5049544;28;20278;-78
2022/10/21 09:05:41;;;;;;;;;;;20.80;99.90;;;;;;5057689;28;19956;-77
2022/10/21 09:08:34;;;;;;;;;;;20.80;99.90;;;;;;5006385;28;19970;-78
2022/10/21 09:11:14;;;;;;;;;;;20.80;99.90;;;;;;5018299;28;20399;-75
2022/10/21 09:14:08;;;;;;;;;;;20.80;99.90;;;;;;5046307;28;19912;-76
2022/10/21 09:17:01;;;;;;;;;;;20.70;99.90;;;;;;5057004;28;19913;-76
2022/10/21 09:19:37;;;;;;;;;;;20.70;99.90;;;;;;5035880;28;20352;-76
2022/10/21 09:22:12;;;;;;;;;;;20.70;99.90;;;;;;5048481;28;19920;-76
2022/10/21 09:24:53;;;;;;;;;;;20.70;99.90;;;;;;5037897;28;19961;-76
2022/10/21 09:27:20;;;;;;;;;;;20.70;99.90;;;;;;5041565;28;19952;-77
2022/10/21 09:29:49;;;;;;;;;;;20.70;99.90;;;;;;5056840;28;19913;-75
2022/10/21 09:32:18;;;;;;;;;;;20.70;99.90;;;;;;5056623;28;19967;-77
2022/10/21 09:34:54;;;;;;;;;;;20.60;99.90;;;;;;5052728;28;19913;-76
2022/10/21 09:37:27;;;;;;;;;;;20.50;99.90;;;;;;5049235;28;19928;-75
2022/10/21 09:39:59;;;;;;;;;;;20.50;99.90;;;;;;5051580;28;20019;-77
2022/10/21 09:42:26;;;;;;;;;;;20.40;99.90;;;;;;5046928;28;19976;-77
2022/10/21 09:44:52;;;;;;;;;;;20.30;99.90;;;;;;5039529;28;20012;-76
2022/10/21 09:47:23;;;;;;;;;;;20.30;99.90;;;;;;5049975;28;19913;-77
2022/10/21 09:49:52;;;;;;;;;;;20.20;99.90;;;;;;5036357;28;19910;-76
2022/10/21 09:52:20;;;;;;;;;;;20.20;99.90;;;;;;5040329;28;20378;-76
2022/10/21 09:54:47;;;;;;;;;;;20.10;99.90;;;;;;5037712;28;19909;-77
2022/10/21 09:57:14;;;;;;;;;;;20.00;99.90;;;;;;5038276;28;20383;-77
2022/10/21 09:59:58;;;;;;;;;;;20.00;99.90;;;;;;5019948;28;19914;-75
2022/10/21 10:02:45;;;;;;;;;;;20.00;99.90;;;;;;5045882;28;19913;-77
2022/10/21 10:05:30;;;;;;;;;;;20.00;99.90;;;;;;5054210;28;19916;-77
2022/10/21 10:07:57;;;;;;;;;;;20.00;99.90;;;;;;5041505;28;19917;-77
2022/10/21 10:10:31;;;;;;;;;;;19.90;99.90;;;;;;5034406;28;19960;-77
2022/10/21 10:12:58;;;;;;;;;;;19.90;99.90;;;;;;5034908;28;19935;-77
2022/10/21 10:15:35;;;;;;;;;;;19.80;99.90;;;;;;5049663;28;20509;-76
2022/10/21 10:18:02;;;;;;;;;;;19.80;99.90;;;;;;5034886;28;19982;-76
2022/10/21 10:20:29;;;;;;;;;;;19.80;99.90;;;;;;5048758;28;20367;-78
2022/10/21 10:22:57;;;;;;;;;;;19.80;99.90;;;;;;5032466;28;19981;-76
2022/10/21 10:25:25;;;;;;;;;;;19.70;99.90;;;;;;5043790;28;20063;-76
2022/10/21 10:27:56;;;;;;;;;;;19.70;99.90;;;;;;5043011;28;20031;-77
2022/10/21 10:30:23;;;;;;;;;;;19.70;99.90;;;;;;5049038;28;19999;-77
2022/10/21 10:32:51;;;;;;;;;;;19.70;99.90;;;;;;5053087;28;20279;-76
2022/10/21 10:35:21;;;;;;;;;;;19.70;99.90;;;;;;5054089;28;19913;-76
2022/10/21 10:37:48;;;;;;;;;;;19.70;99.90;;;;;;5042285;28;19920;-76
2022/10/21 10:40:22;;;;;;;;;;;19.70;99.90;;;;;;5041366;28;19924;-77
2022/10/21 10:42:50;;;;;;;;;;;19.70;99.90;;;;;;5042238;28;20386;-76
2022/10/21 10:45:20;;;;;;;;;;;19.60;99.90;;;;;;5033816;28;20283;-72
2022/10/21 10:47:49;;;;;;;;;;;19.60;99.90;;;;;;5038857;28;20371;-70
2022/10/21 10:50:34;;;;;;;;;;;19.60;99.90;;;;;;5033934;28;20391;-72
2022/10/21 10:53:20;;;;;;;;;;;19.60;99.90;;;;;;5037261;28;19923;-72
2022/10/21 10:55:48;;;;;;;;;;;19.70;99.90;;;;;;5041630;28;20397;-70
2022/10/21 10:58:16;;;;;;;;;;;19.70;99.90;;;;;;5034199;28;20274;-72
2022/10/21 11:00:44;;;;;;;;;;;19.70;99.90;;;;;;5050615;28;19921;-71
2022/10/21 11:03:14;;;;;;;;;;;19.70;99.90;;;;;;5048803;28;19925;-71
2022/10/21 11:05:45;;;;;;;;;;;19.70;99.90;;;;;;5033465;28;20019;-71
2022/10/21 11:08:17;;;;;;;;;;;19.70;99.90;;;;;;5038907;28;19924;-71
2022/10/21 11:10:44;;;;;;;;;;;19.80;99.90;;;;;;5052993;28;19964;-74
2022/10/21 11:13:16;;;;;;;;;;;19.80;99.90;;;;;;5048905;28;19912;-72
2022/10/21 11:15:51;;;;;;;;;;;19.90;99.90;;;;;;5052984;28;19917;-70
2022/10/21 11:18:26;;;;;;;;;;;19.90;99.90;;;;;;5037709;28;19924;-76
2022/10/21 11:21:11;;;;;;;;;;;19.90;99.90;;;;;;5045565;28;20302;-70
2022/10/21 11:23:41;;;;;;;;;;;19.90;99.90;;;;;;5050939;28;20367;-71
2022/10/21 11:26:16;;;;;;;;;;;19.90;99.90;;;;;;5052348;28;19972;-70
2022/10/21 11:28:46;;;;;;;;;;;19.80;99.90;;;;;;5051665;28;19956;-71
2022/10/21 11:31:30;;;;;;;;;;;19.80;99.90;;;;;;5052922;28;19920;-72
2022/10/21 11:33:58;;;;;;;;;;;19.70;99.90;;;;;;5052234;28;19913;-71
2022/10/21 11:36:40;;;;;;;;;;;19.70;99.90;;;;;;5052014;28;19913;-72
2022/10/21 11:39:25;;;;;;;;;;;19.60;99.90;;;;;;5047957;28;19913;-72
2022/10/21 11:41:56;;;;;;;;;;;19.60;99.90;;;;;;5047589;28;19913;-71
2022/10/21 11:44:40;;;;;;;;;;;19.60;99.90;;;;;;5035928;28;20019;-72
2022/10/21 11:47:16;;;;;;;;;;;19.60;99.90;;;;;;5036910;28;20278;-73
2022/10/21 11:50:01;;;;;;;;;;;19.50;99.90;;;;;;5051122;28;19920;-69
2022/10/21 11:52:30;;;;;;;;;;;19.40;99.90;;;;;;5043287;28;20012;-69
2022/10/21 11:54:57;;;;;;;;;;;19.30;99.90;;;;;;5044146;28;19935;-71
2022/10/21 11:57:44;;;;;;;;;;;19.30;99.90;;;;;;5051164;28;20524;-73
2022/10/21 12:00:13;;;;;;;;;;;19.20;99.90;;;;;;5052055;28;19938;-70
2022/10/21 12:02:42;;;;;;;;;;;19.20;99.90;;;;;;5041352;28;19920;-70
2022/10/21 12:05:09;;;;;;;;;;;19.10;99.90;;;;;;5032952;28;19939;-69
2022/10/21 12:07:35;;;;;;;;;;;19.10;99.90;;;;;;5041958;28;20023;-73
2022/10/21 12:10:26;;;;;;;;;;;19.00;99.90;;;;;;5051620;28;19913;-72
2022/10/21 12:12:54;;;;;;;;;;;19.00;99.90;;;;;;5040504;28;20495;-70
2022/10/21 12:15:41;;;;;;;;;;;19.00;99.90;;;;;;5048774;28;19920;-70
2022/10/21 12:18:12;;;;;;;;;;;18.90;99.90;;;;;;5040986;28;19917;-73
2022/10/21 12:20:39;;;;;;;;;;;18.90;99.90;;;;;;5051677;28;19935;-72
2022/10/21 12:23:06;;;;;;;;;;;18.90;99.90;;;;;;5049099;28;19928;-71
2022/10/21 12:25:45;;;;;;;;;;;18.90;99.90;;;;;;5051255;28;19931;-72
2022/10/21 12:28:35;;;;;;;;;;;18.90;99.90;;;;;;5042981;28;19913;-70
2022/10/21 12:31:15;;;;;;;;;;;18.90;99.90;;;;;;5048571;28;19913;-69
2022/10/21 12:33:47;;;;;;;;;;;18.80;99.90;;;;;;5047690;28;20402;-71
2022/10/21 12:36:37;;;;;;;;;;;18.80;99.90;;;;;;5048942;28;19918;-70
2022/10/21 12:39:04;;;;;;;;;;;18.80;99.90;;;;;;5048598;28;19966;-70
2022/10/21 12:41:37;;;;;;;;;;;18.80;99.90;;;;;;5044417;28;19955;-70
2022/10/21 12:44:27;;;;;;;;;;;18.80;99.90;;;;;;5041331;28;20359;-69
2022/10/21 12:47:00;;;;;;;;;;;18.70;99.90;;;;;;5044778;28;19921;-72
2022/10/21 12:49:26;;;;;;;;;;;18.80;99.90;;;;;;5035453;28;19913;-71
2022/10/21 12:51:53;;;;;;;;;;;18.70;99.90;;;;;;5034277;28;19936;-70
2022/10/21 12:54:21;;;;;;;;;;;18.70;99.90;;;;;;5047723;28;20007;-70
2022/10/21 12:56:49;;;;;;;;;;;18.70;99.90;;;;;;5048314;28;19917;-71
2022/10/21 12:59:36;;;;;;;;;;;18.70;99.90;;;;;;5031717;28;20264;-70
2022/10/21 13:02:06;;;;;;;;;;;18.70;99.90;;;;;;5031972;28;19920;-71
2022/10/21 13:04:33;;;;;;;;;;;18.70;99.90;;;;;;5041732;28;19929;-72
2022/10/21 13:07:00;;;;;;;;;;;18.60;99.90;;;;;;5044168;28;19913;-71
2022/10/21 13:09:31;;;;;;;;;;;18.60;99.90;;;;;;5048079;28;19928;-72
2022/10/21 13:12:10;;;;;;;;;;;18.60;99.90;;;;;;5041040;28;20281;-71
2022/10/21 13:14:46;;;;;;;;;;;18.60;99.90;;;;;;5045989;28;19920;-71
2022/10/21 13:17:29;;;;;;;;;;;18.60;99.90;;;;;;5032240;28;19917;-70
2022/10/21 13:20:32;;;;;;;;;;;18.60;99.90;;;;;;5042732;28;19939;-70
2022/10/21 13:23:19;;;;;;;;;;;18.50;99.90;;;;;;5018811;28;19925;-73
2022/10/21 13:25:45;;;;;;;;;;;18.60;99.90;;;;;;5040796;28;20390;-71
2022/10/21 13:28:12;;;;;;;;;;;18.60;99.90;;;;;;5032678;28;19923;-71
2022/10/21 13:30:55;;;;;;;;;;;18.60;99.90;;;;;;5032004;28;19916;-71
2022/10/21 13:33:24;;;;;;;;;;;18.50;99.90;;;;;;5039777;28;20005;-70
2022/10/21 13:35:52;;;;;;;;;;;18.50;99.90;;;;;;5039477;28;19913;-70
2022/10/21 13:38:23;;;;;;;;;;;18.40;99.90;;;;;;5038778;28;20348;-70
2022/10/21 13:40:51;;;;;;;;;;;18.40;99.90;;;;;;5035636;28;20281;-70
2022/10/21 13:43:27;;;;;;;;;;;18.30;99.90;;;;;;5041378;28;19952;-70
2022/10/21 13:46:17;;;;;;;;;;;18.30;99.90;;;;;;5055219;28;20346;-70
2022/10/21 13:48:44;;;;;;;;;;;18.30;99.90;;;;;;5046018;28;19920;-71
2022/10/21 13:51:19;;;;;;;;;;;18.20;99.90;;;;;;5055477;28;20252;-70
2022/10/21 13:53:46;;;;;;;;;;;18.20;99.90;;;;;;5039301;28;19935;-70
2022/10/21 13:56:18;;;;;;;;;;;18.20;99.90;;;;;;5053996;28;19913;-71
2022/10/21 13:58:45;;;;;;;;;;;18.10;99.90;;;;;;5053301;28;20011;-69
2022/10/21 14:01:15;;;;;;;;;;;18.10;99.90;;;;;;5054000;28;19936;-69
2022/10/21 14:03:42;;;;;;;;;;;18.10;99.90;;;;;;5036270;28;20007;-70
2022/10/21 14:06:10;;;;;;;;;;;18.10;99.90;;;;;;5037608;28;19917;-70
2022/10/21 14:08:44;;;;;;;;;;;18.10;99.90;;;;;;5042424;28;19971;-70
2022/10/21 14:11:14;;;;;;;;;;;18.00;99.90;;;;;;5054004;28;20446;-71
2022/10/21 14:13:41;;;;;;;;;;;18.00;99.90;;;;;;5035868;28;19913;-69
2022/10/21 14:16:08;;;;;;;;;;;18.00;99.90;;;;;;5039907;28;19912;-72
2022/10/21 14:18:39;;;;;;;;;;;18.00;99.90;;;;;;5052717;28;19919;-70
2022/10/21 14:21:07;;;;;;;;;;;17.90;99.90;;;;;;5054693;28;19916;-72
2022/10/21 14:23:34;;;;;;;;;;;18.00;99.90;;;;;;5036932;28;19979;-70
2022/10/21 14:26:03;;;;;;;;;;;17.90;99.90;;;;;;5051550;28;19921;-70
2022/10/21 14:28:33;;;;;;;;;;;17.90;99.90;;;;;;5034599;28;20150;-70
2022/10/21 14:31:00;;;;;;;;;;;17.90;99.90;;;;;;5034499;28;20340;-70
2022/10/21 14:33:28;;;;;;;;;;;17.90;99.90;;;;;;5035225;28;19996;-71